Time;durP1;ratioP1;P1;durP2;ratioP2;P2;SDS_P1;SDS_P2;PMS_P1;PMS_P2;Temp;Humidity;BMP_temperature;BMP_pressure;BME280_temperature;BME280_humidity;BME280_pressure;Samples;Min_cycle;Max_cycle;Signal;HPM_P1;HPM_P2
2021/11/20 00:01:35;;;;;;;;;;;;;;;18.46;100.00;102759.09;5054421;28;20396;-54
2021/11/20 00:04:00;;;;;;;;;;;;;;;18.15;100.00;102755.81;5056316;28;19921;-55
2021/11/20 00:06:31;;;;;;;;;;;;;;;18.63;100.00;102755.00;5056036;28;19978;-52
2021/11/20 00:08:56;;;;;;;;;;;;;;;18.08;100.00;102752.25;5056068;28;19949;-51
2021/11/20 00:11:23;;;;;;;;;;;;;;;18.14;100.00;102751.44;5055971;28;19912;-51
2021/11/20 00:13:49;;;;;;;;;;;;;;;18.14;100.00;102751.44;5056054;28;20019;-49
2021/11/20 00:16:15;;;;;;;;;;;;;;;18.78;100.00;102754.84;5055862;28;19999;-55
2021/11/20 00:18:41;;;;;;;;;;;;;;;18.13;100.00;102757.91;5056267;28;19917;-51
2021/11/20 00:21:09;;;;;;;;;;;;;;;18.51;100.00;102750.38;5056039;28;20223;-52
2021/11/20 00:23:36;;;;;;;;;;;;;;;18.28;100.00;102762.34;5055728;28;19925;-53
2021/11/20 00:26:02;;;;;;;;;;;;;;;18.58;100.00;102759.34;5054887;28;19916;-54
2021/11/20 00:29:03;;;;;;;;;;;;;;;18.48;100.00;102749.75;5054557;28;19916;-55
2021/11/20 00:31:32;;;;;;;;;;;;;;;18.48;100.00;102755.16;5055075;28;19965;-55
2021/11/20 00:33:58;;;;;;;;;;;;;;;18.51;100.00;102750.38;5055551;28;19917;-57
2021/11/20 00:36:24;;;;;;;;;;;;;;;18.55;100.00;102751.63;5055851;28;20360;-58
2021/11/20 00:38:50;;;;;;;;;;;;;;;18.22;100.00;102747.75;5056106;28;20055;-56
2021/11/20 00:41:21;;;;;;;;;;;;;;;18.22;100.00;102749.59;5054553;28;19918;-56
2021/11/20 00:43:47;;;;;;;;;;;;;;;18.46;100.00;102741.00;5055833;28;19921;-51
2021/11/20 00:46:14;;;;;;;;;;;;;;;18.72;100.00;102752.09;5055068;28;19924;-56
2021/11/20 00:48:42;;;;;;;;;;;;;;;18.77;100.00;102749.63;5054204;28;20027;-55
2021/11/20 00:51:09;;;;;;;;;;;;;;;18.75;100.00;102741.72;5055457;28;19963;-54
2021/11/20 00:53:36;;;;;;;;;;;;;;;18.22;100.00;102739.63;5055455;28;19923;-56
2021/11/20 00:56:02;;;;;;;;;;;;;;;18.47;100.00;102741.81;5055412;28;19948;-53
2021/11/20 00:58:28;;;;;;;;;;;;;;;18.45;100.00;102731.19;5055320;28;19927;-52
2021/11/20 01:00:55;;;;;;;;;;;;;;;18.47;100.00;102725.56;5055407;28;19917;-53
2021/11/20 01:03:22;;;;;;;;;;;;;;;18.32;100.00;102728.41;5087537;28;19920;-55
2021/11/20 01:05:48;;;;;;;;;;;;;;;18.44;100.00;102734.91;5054566;28;19917;-56
2021/11/20 01:08:14;;;;;;;;;;;;;;;18.36;100.00;102729.69;5053798;28;19916;-56
2021/11/20 01:10:42;;;;;;;;;;;;;;;18.28;100.00;102724.44;5055169;28;19924;-55
2021/11/20 01:13:09;;;;;;;;;;;;;;;18.27;100.00;102723.59;5052285;28;19917;-56
2021/11/20 01:15:49;;;;;;;;;;;;;;;18.20;100.00;102715.44;5055024;28;19916;-54
2021/11/20 01:18:15;;;;;;;;;;;;;;;17.89;100.00;102716.69;5087832;28;19916;-56
2021/11/20 01:20:45;;;;;;;;;;;;;;;18.09;100.00;102716.00;5054147;28;19912;-55
2021/11/20 01:23:12;;;;;;;;;;;;;;;18.47;100.00;102718.28;5053382;28;19917;-56
2021/11/20 01:25:42;;;;;;;;;;;;;;;18.38;100.00;102714.06;5054768;28;20015;-51
2021/11/20 01:28:33;;;;;;;;;;;;;;;18.19;100.00;102715.66;5051271;28;20372;-55
2021/11/20 01:31:06;;;;;;;;;;;;;;;18.20;100.00;102717.31;5054085;28;19921;-52
2021/11/20 01:33:37;;;;;;;;;;;;;;;18.01;100.00;102713.44;5070837;28;19921;-52
2021/11/20 01:36:04;;;;;;;;;;;;;;;17.90;100.00;102706.72;5053344;28;20387;-55
2021/11/20 01:38:31;;;;;;;;;;;;;;;17.87;100.00;102701.69;5087422;28;19920;-56
2021/11/20 01:41:07;;;;;;;;;;;;;;;17.85;100.00;102707.31;5053601;28;19917;-55
2021/11/20 01:43:47;;;;;;;;;;;;;;;18.18;100.00;102698.56;5086177;28;19964;-54
2021/11/20 01:46:14;;;;;;;;;;;;;;;18.15;100.00;102708.97;5053751;28;20395;-56
2021/11/20 01:48:52;;;;;;;;;;;;;;;18.63;100.00;102706.25;5053380;28;19917;-50
2021/11/20 01:51:24;;;;;;;;;;;;;;;18.60;100.00;102700.38;5053177;28;20402;-50
2021/11/20 01:53:56;;;;;;;;;;;;;;;18.67;100.00;102698.50;5087252;28;19916;-54
2021/11/20 01:56:28;;;;;;;;;;;;;;;18.18;100.00;102686.91;5086238;28;19971;-56
2021/11/20 01:59:03;;;;;;;;;;;;;;;17.97;100.00;102690.50;5086510;28;19966;-53
2021/11/20 02:01:56;;;;;;;;;;;;;;;18.41;100.00;102691.97;5054330;28;20419;-55
2021/11/20 02:05:01;;;;;;;;;;;;;;;18.56;100.00;102691.81;5054183;28;19956;-52
2021/11/20 02:07:38;;;;;;;;;;;;;;;18.53;100.00;102686.00;5053128;28;20005;-54
2021/11/20 02:10:07;;;;;;;;;;;;;;;18.47;100.00;102691.19;5053323;28;19924;-54
2021/11/20 02:12:51;;;;;;;;;;;;;;;18.24;100.00;102686.09;5085999;28;19917;-54
2021/11/20 02:15:20;;;;;;;;;;;;;;;17.99;100.00;102673.03;5053952;28;19928;-55
2021/11/20 02:17:51;;;;;;;;;;;;;;;18.14;100.00;102670.22;5086206;28;19916;-51
2021/11/20 02:20:29;;;;;;;;;;;;;;;18.35;100.00;102679.25;5053115;28;19916;-54
2021/11/20 02:22:55;;;;;;;;;;;;;;;18.55;100.00;102678.50;5051977;28;19916;-54
2021/11/20 02:25:22;;;;;;;;;;;;;;;18.55;100.00;102687.44;5086569;28;20306;-52
2021/11/20 02:28:01;;;;;;;;;;;;;;;18.28;100.00;102673.81;5086283;28;20229;-57
2021/11/20 02:30:28;;;;;;;;;;;;;;;18.40;100.00;102674.06;5052315;28;19917;-51
2021/11/20 02:32:58;;;;;;;;;;;;;;;18.17;100.00;102663.56;5053629;28;19967;-54
2021/11/20 02:35:41;;;;;;;;;;;;;;;18.46;100.00;102670.56;5052958;28;19939;-56
2021/11/20 02:38:08;;;;;;;;;;;;;;;18.56;100.00;102661.19;5085558;28;19927;-53
2021/11/20 02:40:34;;;;;;;;;;;;;;;18.45;100.00;102668.88;5053697;28;20348;-56
2021/11/20 02:42:59;;;;;;;;;;;;;;;18.25;100.00;102674.22;5085335;28;19924;-54
2021/11/20 02:45:38;;;;;;;;;;;;;;;18.15;100.00;102671.06;5085987;28;19976;-50
2021/11/20 02:48:04;;;;;;;;;;;;;;;18.06;100.00;102670.41;5069208;28;19923;-52
2021/11/20 02:50:37;;;;;;;;;;;;;;;18.21;100.00;102667.53;5052231;28;20023;-53
2021/11/20 02:53:04;;;;;;;;;;;;;;;18.25;100.00;102665.28;5085204;28;19928;-55
2021/11/20 02:55:32;;;;;;;;;;;;;;;18.32;100.00;102666.13;5052352;28;19917;-54
2021/11/20 02:57:58;;;;;;;;;;;;;;;18.31;100.00;102659.03;5068145;28;20373;-54
2021/11/20 03:00:24;;;;;;;;;;;;;;;18.42;100.00;102655.72;5053370;28;19923;-53
2021/11/20 03:02:49;;;;;;;;;;;;;;;18.02;100.00;102642.88;5051746;28;20281;-53
2021/11/20 03:05:15;;;;;;;;;;;;;;;18.12;100.00;102652.53;5085520;28;20018;-52
2021/11/20 03:07:40;;;;;;;;;;;;;;;18.49;100.00;102644.91;5053082;28;19968;-55
2021/11/20 03:10:07;;;;;;;;;;;;;;;18.26;100.00;102645.28;5051719;28;20467;-54
2021/11/20 03:12:33;;;;;;;;;;;;;;;18.31;100.00;102637.38;5085746;28;20258;-51
2021/11/20 03:14:59;;;;;;;;;;;;;;;18.27;100.00;102633.41;5052112;28;19924;-54
2021/11/20 03:17:29;;;;;;;;;;;;;;;17.90;100.00;102634.47;5085768;28;20026;-55
2021/11/20 03:19:57;;;;;;;;;;;;;;;17.89;100.00;102631.97;5053068;28;19924;-55
2021/11/20 03:22:25;;;;;;;;;;;;;;;18.08;100.00;102622.31;5085234;28;20394;-55
2021/11/20 03:24:51;;;;;;;;;;;;;;;17.98;100.00;102629.91;5051291;28;20011;-50
2021/11/20 03:27:18;;;;;;;;;;;;;;;18.27;100.00;102633.41;5052955;28;20011;-52
2021/11/20 03:29:44;;;;;;;;;;;;;;;18.49;100.00;102634.94;5051452;28;19939;-54
2021/11/20 03:32:10;;;;;;;;;;;;;;;18.67;100.00;102635.38;5052602;28;20311;-53
2021/11/20 03:34:36;;;;;;;;;;;;;;;18.47;100.00;102637.00;5051600;28;19923;-55
2021/11/20 03:37:02;;;;;;;;;;;;;;;17.97;100.00;102630.94;5055655;28;19930;-49
2021/11/20 03:39:33;;;;;;;;;;;;;;;17.80;100.00;102625.06;5056277;28;19916;-55
2021/11/20 03:41:59;;;;;;;;;;;;;;;17.96;100.00;102624.72;5089650;28;20031;-56
2021/11/20 03:44:25;;;;;;;;;;;;;;;18.11;100.00;102626.50;5088927;28;19924;-52
2021/11/20 03:46:54;;;;;;;;;;;;;;;18.10;100.00;102622.06;5055625;28;20375;-51
2021/11/20 03:49:21;;;;;;;;;;;;;;;17.95;100.00;102622.19;5089387;28;19951;-55
2021/11/20 03:51:46;;;;;;;;;;;;;;;18.16;100.00;102622.09;5057217;28;19966;-51
2021/11/20 03:54:12;;;;;;;;;;;;;;;18.16;100.00;102619.41;5089199;28;20350;-49
2021/11/20 03:56:38;;;;;;;;;;;;;;;17.83;100.00;102620.09;5088990;28;19921;-53
2021/11/20 03:59:03;;;;;;;;;;;;;;;18.03;100.00;102619.38;5088617;28;20003;-55
2021/11/20 04:01:30;;;;;;;;;;;;;;;18.26;100.00;102607.38;5055263;28;19962;-55
2021/11/20 04:03:56;;;;;;;;;;;;;;;18.20;100.00;102606.31;5057107;28;20012;-53
2021/11/20 04:06:22;;;;;;;;;;;;;;;17.94;100.00;102609.72;5089245;28;19916;-56
2021/11/20 04:08:59;;;;;;;;;;;;;;;18.22;100.00;102611.50;5056167;28;20014;-56
2021/11/20 04:11:27;;;;;;;;;;;;;;;18.26;100.00;102612.78;5071873;28;19921;-55
2021/11/20 04:13:53;;;;;;;;;;;;;;;18.38;100.00;102613.03;5055154;28;19916;-52
2021/11/20 04:16:19;;;;;;;;;;;;;;;18.54;100.00;102612.63;5072321;28;20005;-56
2021/11/20 04:18:46;;;;;;;;;;;;;;;18.57;100.00;102612.22;5089122;28;20213;-54
2021/11/20 04:21:15;;;;;;;;;;;;;;;18.51;100.00;102614.94;5054994;28;20043;-54
2021/11/20 04:23:41;;;;;;;;;;;;;;;18.08;100.00;102608.75;5056386;28;19917;-52
2021/11/20 04:26:07;;;;;;;;;;;;;;;17.82;100.00;102607.59;5054962;28;19925;-52
2021/11/20 04:28:34;;;;;;;;;;;;;;;18.19;100.00;102612.75;5071910;28;19932;-50
2021/11/20 04:31:08;;;;;;;;;;;;;;;18.11;100.00;102607.53;5055303;28;20423;-50
2021/11/20 04:33:33;;;;;;;;;;;;;;;18.17;100.00;102609.41;5055885;28;19971;-50
2021/11/20 04:35:58;;;;;;;;;;;;;;;17.96;100.00;102605.78;5088397;28;19927;-53
2021/11/20 04:38:24;;;;;;;;;;;;;;;18.10;100.00;102603.13;5055964;28;20276;-54
2021/11/20 04:40:50;;;;;;;;;;;;;;;18.49;100.00;102602.41;5055572;28;20043;-54
2021/11/20 04:43:15;;;;;;;;;;;;;;;18.60;100.00;102600.13;5055662;28;20210;-56
2021/11/20 04:45:41;;;;;;;;;;;;;;;18.12;100.00;102593.78;5088284;28;19978;-56
2021/11/20 04:48:10;;;;;;;;;;;;;;;18.49;100.00;102590.75;5054572;28;19960;-57
2021/11/20 04:50:48;;;;;;;;;;;;;;;18.26;100.00;102591.13;5070729;28;19936;-53
2021/11/20 04:53:14;;;;;;;;;;;;;;;18.32;100.00;102593.00;5071748;28;19924;-58
2021/11/20 04:55:41;;;;;;;;;;;;;;;18.33;100.00;102591.97;5071307;28;19921;-54
2021/11/20 04:58:10;;;;;;;;;;;;;;;18.18;100.00;102598.38;5054121;28;20003;-55
2021/11/20 05:00:40;;;;;;;;;;;;;;;17.58;100.00;102589.97;5055227;28;19968;-52
2021/11/20 05:03:07;;;;;;;;;;;;;;;18.01;100.00;102595.19;5054466;28;20345;-52
2021/11/20 05:05:39;;;;;;;;;;;;;;;17.60;100.00;102588.75;5054392;28;19917;-55
2021/11/20 05:08:09;;;;;;;;;;;;;;;17.78;100.00;102593.63;5054540;28;19986;-52
2021/11/20 05:10:36;;;;;;;;;;;;;;;18.41;100.00;102596.38;5055344;28;20313;-55
2021/11/20 05:13:01;;;;;;;;;;;;;;;17.91;100.00;102595.53;5088544;28;19916;-54
2021/11/20 05:15:28;;;;;;;;;;;;;;;17.83;100.00;102594.88;5054763;28;19921;-52
2021/11/20 05:17:54;;;;;;;;;;;;;;;17.90;100.00;102595.75;5087298;28;19983;-54
2021/11/20 05:20:43;;;;;;;;;;;;;;;17.86;100.00;102589.91;5055858;28;19920;-55
2021/11/20 05:23:09;;;;;;;;;;;;;;;17.66;100.00;102586.28;5055459;28;20348;-54
2021/11/20 05:25:35;;;;;;;;;;;;;;;17.89;100.00;102592.22;5087807;28;19920;-56
2021/11/20 05:28:00;;;;;;;;;;;;;;;17.82;100.00;102585.09;5053782;28;19920;-56
2021/11/20 05:30:30;;;;;;;;;;;;;;;18.06;100.00;102581.06;5087693;28;19939;-54
2021/11/20 05:32:58;;;;;;;;;;;;;;;18.46;100.00;102575.75;5053882;28;19920;-53
2021/11/20 05:35:24;;;;;;;;;;;;;;;17.68;100.00;102566.09;5053784;28;20349;-56
2021/11/20 05:37:49;;;;;;;;;;;;;;;17.55;100.00;102560.63;5053971;28;19917;-51
2021/11/20 05:40:16;;;;;;;;;;;;;;;17.98;100.00;102563.09;5070851;28;19927;-55
2021/11/20 05:42:43;;;;;;;;;;;;;;;17.90;100.00;102553.28;5054727;28;19917;-52
2021/11/20 05:45:08;;;;;;;;;;;;;;;17.34;100.00;102552.41;5086549;28;20352;-56
2021/11/20 05:47:34;;;;;;;;;;;;;;;17.76;100.00;102562.38;5053112;28;19943;-50
2021/11/20 05:50:00;;;;;;;;;;;;;;;17.65;100.00;102552.13;5054135;28;19923;-53
2021/11/20 05:52:25;;;;;;;;;;;;;;;17.88;100.00;102547.25;5070071;28;19959;-51
2021/11/20 05:54:51;;;;;;;;;;;;;;;17.41;100.00;102554.31;5054179;28;19974;-52
2021/11/20 05:57:25;;;;;;;;;;;;;;;17.87;100.00;102545.56;5053272;28;19970;-51
2021/11/20 06:00:11;;;;;;;;;;;;;;;17.44;100.00;102540.38;5053250;28;19974;-49
2021/11/20 06:02:49;;;;;;;;;;;;;;;17.53;100.00;102539.19;5054156;28;19999;-56
2021/11/20 06:05:16;;;;;;;;;;;;;;;17.88;100.00;102528.28;5053331;28;19916;-56
2021/11/20 06:07:42;;;;;;;;;;;;;;;17.71;100.00;102524.28;5052843;28;19913;-56
2021/11/20 06:10:08;;;;;;;;;;;;;;;17.79;100.00;102532.22;5086805;28;19920;-51
2021/11/20 06:12:33;;;;;;;;;;;;;;;18.04;100.00;102531.72;5069818;28;20375;-49
2021/11/20 06:14:59;;;;;;;;;;;;;;;17.75;100.00;102528.22;5054210;28;20391;-49
2021/11/20 06:17:27;;;;;;;;;;;;;;;18.28;100.00;102529.47;5069028;28;19927;-52
2021/11/20 06:19:52;;;;;;;;;;;;;;;17.74;100.00;102527.41;5069891;28;19916;-55
2021/11/20 06:22:20;;;;;;;;;;;;;;;17.84;100.00;102527.03;5053229;28;20325;-53
2021/11/20 06:24:46;;;;;;;;;;;;;;;18.35;100.00;102530.28;5086044;28;19955;-53
2021/11/20 06:27:13;;;;;;;;;;;;;;;18.03;100.00;102524.63;5068950;28;19979;-54
2021/11/20 06:29:41;;;;;;;;;;;;;;;18.27;100.00;102523.19;5053299;28;20031;-57
2021/11/20 06:32:11;;;;;;;;;;;;;;;18.26;100.00;102526.13;5053338;28;20268;-54
2021/11/20 06:34:57;;;;;;;;;;;;;;;18.38;100.00;102524.47;5079988;28;19978;-51
2021/11/20 06:37:45;;;;;;;;;;;;;;;18.13;100.00;102516.94;5066784;28;19923;-52
2021/11/20 06:40:24;;;;;;;;;;;;;;;17.97;100.00;102518.13;5054003;28;20023;-53
2021/11/20 06:42:52;;;;;;;;;;;;;;;18.18;100.00;102509.03;5086086;28;20007;-57
2021/11/20 06:45:20;;;;;;;;;;;;;;;18.11;100.00;102510.88;5054032;28;19917;-55
2021/11/20 06:47:47;;;;;;;;;;;;;;;18.11;100.00;102508.19;5052629;28;20002;-57
2021/11/20 06:50:12;;;;;;;;;;;;;;;18.07;100.00;102512.34;5054157;28;19920;-52
2021/11/20 06:52:56;;;;;;;;;;;;;;;18.09;100.00;102514.84;5081062;28;20002;-54
2021/11/20 06:55:41;;;;;;;;;;;;;;;18.04;100.00;102512.75;5053877;28;19962;-49
2021/11/20 07:00:56;;;;;;;;;;;;;;;17.63;100.00;102518.00;5067324;28;19917;-49
2021/11/20 07:03:45;;;;;;;;;;;;;;;17.75;100.00;102520.97;5052612;28;20008;-50
2021/11/20 07:06:19;;;;;;;;;;;;;;;18.08;100.00;102516.72;5052216;28;19917;-52
2021/11/20 07:08:45;;;;;;;;;;;;;;;18.14;100.00;102521.31;5069504;28;20296;-50
2021/11/20 07:11:11;;;;;;;;;;;;;;;17.48;100.00;102515.44;5053227;28;19916;-48
2021/11/20 07:13:37;;;;;;;;;;;;;;;17.74;100.00;102516.59;5051760;28;19920;-50
2021/11/20 07:16:03;;;;;;;;;;;;;;;17.81;100.00;102515.78;5068276;28;20016;-52
2021/11/20 07:18:29;;;;;;;;;;;;;;;17.61;100.00;102517.38;5084895;28;20019;-49
2021/11/20 07:21:13;;;;;;;;;;;;;;;17.51;100.00;102524.19;5080801;28;20341;-50
2021/11/20 07:23:56;;;;;;;;;;;;;;;17.74;100.00;102518.44;5085881;28;19938;-53
2021/11/20 07:26:23;;;;;;;;;;;;;;;17.74;100.00;102518.44;5051649;28;20030;-55
2021/11/20 07:28:49;;;;;;;;;;;;;;;17.36;100.00;102508.94;5051472;28;20008;-54
2021/11/20 07:31:16;;;;;;;;;;;;;;;17.58;100.00;102517.78;5085266;28;19960;-56
2021/11/20 07:33:42;;;;;;;;;;;;;;;17.43;100.00;102514.38;5052931;28;19971;-53
2021/11/20 07:36:08;;;;;;;;;;;;;;;17.39;100.00;102515.81;5068795;28;20380;-56
2021/11/20 07:38:36;;;;;;;;;;;;;;;17.56;100.00;102524.41;5051512;28;19920;-54
2021/11/20 07:41:02;;;;;;;;;;;;;;;17.48;100.00;102515.44;5085078;28;19992;-56
2021/11/20 07:43:28;;;;;;;;;;;;;;;18.03;100.00;102520.03;5084703;28;19995;-55
2021/11/20 07:46:13;;;;;;;;;;;;;;;17.56;100.00;102513.59;5051736;28;20051;-51
2021/11/20 07:48:39;;;;;;;;;;;;;;;17.59;100.00;102511.34;5051316;28;19917;-54
2021/11/20 07:51:09;;;;;;;;;;;;;;;17.58;100.00;102516.94;5051407;28;20298;-57
2021/11/20 07:53:43;;;;;;;;;;;;;;;17.36;100.00;102503.53;5052759;28;20004;-56
2021/11/20 07:56:15;;;;;;;;;;;;;;;17.34;100.00;102502.88;5052680;28;19960;-54
2021/11/20 07:58:42;;;;;;;;;;;;;;;17.57;100.00;102507.16;5051553;28;20394;-56
2021/11/20 08:01:09;;;;;;;;;;;;;;;17.42;100.00;102501.88;5052752;28;19920;-55
2021/11/20 08:03:36;;;;;;;;;;;;;;;17.78;100.00;102506.22;5051868;28;19928;-54
2021/11/20 08:06:20;;;;;;;;;;;;;;;17.81;100.00;102494.97;5065420;28;19928;-55
2021/11/20 08:09:03;;;;;;;;;;;;;;;17.45;100.00;102487.97;5051374;28;19939;-54
2021/11/20 08:11:47;;;;;;;;;;;;;;;17.55;100.00;102484.88;5052790;28;19943;-55
2021/11/20 08:14:12;;;;;;;;;;;;;;;17.77;100.00;102489.13;5051193;28;19916;-55
2021/11/20 08:16:54;;;;;;;;;;;;;;;17.66;100.00;102486.16;5051801;28;20019;-55
2021/11/20 08:19:35;;;;;;;;;;;;;;;18.14;100.00;102488.81;5051478;28;19924;-53
2021/11/20 08:22:07;;;;;;;;;;;;;;;18.26;100.00;102485.50;5087301;28;19920;-55
2021/11/20 08:24:35;;;;;;;;;;;;;;;17.64;100.00;102475.53;5054467;28;19947;-50
2021/11/20 08:27:01;;;;;;;;;;;;;;;18.17;100.00;102476.75;5055366;28;19921;-55
2021/11/20 08:29:32;;;;;;;;;;;;;;;17.91;100.00;102476.47;5054806;28;20380;-54
2021/11/20 08:31:57;;;;;;;;;;;;;;;17.87;100.00;102464.38;5071501;28;19916;-53
2021/11/20 08:34:32;;;;;;;;;;;;;;;17.92;100.00;102467.31;5055245;28;20003;-51
2021/11/20 08:37:23;;;;;;;;;;;;;;;18.51;100.00;102455.09;5054797;28;19924;-54
2021/11/20 08:39:58;;;;;;;;;;;;;;;17.78;100.00;102454.78;5055103;28;19994;-56
2021/11/20 08:42:24;;;;;;;;;;;;;;;18.45;100.00;102449.47;5054549;28;19916;-49
2021/11/20 08:44:50;;;;;;;;;;;;;;;18.00;100.00;102449.22;5087341;28;20423;-56
2021/11/20 08:47:22;;;;;;;;;;;;;;;18.20;100.00;102451.97;5054759;28;20268;-56
2021/11/20 08:49:48;;;;;;;;;;;;;;;17.76;100.00;102451.44;5088324;28;19943;-56
2021/11/20 08:52:15;;;;;;;;;;;;;;;18.09;100.00;102437.16;5087691;28;19912;-56
2021/11/20 08:54:42;;;;;;;;;;;;;;;18.40;100.00;102441.13;5053584;28;19921;-50
2021/11/20 08:57:09;;;;;;;;;;;;;;;18.46;100.00;102442.16;5087355;28;19917;-57
2021/11/20 08:59:38;;;;;;;;;;;;;;;18.09;100.00;102439.03;5054765;28;19975;-55
2021/11/20 09:02:09;;;;;;;;;;;;;;;17.59;100.00;102427.47;5086834;28;19917;-56
2021/11/20 09:04:42;;;;;;;;;;;;;;;17.86;100.00;102435.66;5088083;28;19955;-54
2021/11/20 09:07:17;;;;;;;;;;;;;;;17.91;100.00;102433.16;5087412;28;19920;-55
2021/11/20 09:10:13;;;;;;;;;;;;;;;18.05;100.00;102416.97;5088052;28;19920;-56
2021/11/20 09:12:49;;;;;;;;;;;;;;;18.06;100.00;102424.06;5052328;28;20305;-54
2021/11/20 09:15:17;;;;;;;;;;;;;;;17.57;100.00;102421.44;5053648;28;20003;-56
2021/11/20 09:17:44;;;;;;;;;;;;;;;17.97;100.00;102422.53;5087210;28;20016;-52
2021/11/20 09:20:18;;;;;;;;;;;;;;;18.25;100.00;102424.28;5068992;28;19940;-56
2021/11/20 09:22:43;;;;;;;;;;;;;;;18.43;100.00;102429.88;5054045;28;19952;-50
2021/11/20 09:25:17;;;;;;;;;;;;;;;18.47;100.00;102424.88;5087872;28;19962;-53
2021/11/20 09:27:47;;;;;;;;;;;;;;;18.17;100.00;102425.31;5087120;28;19951;-52
2021/11/20 09:30:19;;;;;;;;;;;;;;;18.08;100.00;102421.97;5054011;28;19917;-56
2021/11/20 09:32:45;;;;;;;;;;;;;;;17.91;100.00;102426.94;5052639;28;19942;-53
2021/11/20 09:35:21;;;;;;;;;;;;;;;17.15;100.00;102423.38;5087117;28;20377;-54
2021/11/20 09:38:23;;;;;;;;;;;;;;;17.57;100.00;102413.31;5032653;28;19921;-55
2021/11/20 09:40:54;;;;;;;;;;;;;;;17.48;100.00;102414.53;5049328;28;20353;-51
2021/11/20 09:43:31;;;;;;;;;;;;;;;17.19;100.00;102416.50;5053345;28;20399;-55
2021/11/20 09:46:01;;;;;;;;;;;;;;;17.51;100.00;102410.59;5087206;28;19916;-53
2021/11/20 09:48:31;;;;;;;;;;;;;;;17.88;100.00;102406.50;5054033;28;20047;-54
2021/11/20 09:51:25;;;;;;;;;;;;;;;17.69;100.00;102412.72;5087861;28;20018;-53
2021/11/20 09:53:54;;;;;;;;;;;;;;;17.37;100.00;102409.72;5038028;28;20015;-55
2021/11/20 09:56:25;;;;;;;;;;;;;;;17.33;100.00;102409.28;5072173;28;19917;-53
2021/11/20 09:58:53;;;;;;;;;;;;;;;17.65;100.00;102411.47;5056016;28;19974;-53
2021/11/20 10:01:24;;;;;;;;;;;;;;;17.62;100.00;102418.09;5054713;28;20020;-53
2021/11/20 10:03:50;;;;;;;;;;;;;;;17.69;100.00;102407.31;5086761;28;19917;-53
2021/11/20 10:06:27;;;;;;;;;;;;;;;17.92;100.00;102406.94;5054136;28;19923;-56
2021/11/20 10:09:11;;;;;;;;;;;;;;;17.88;100.00;102405.69;5054152;28;20264;-57
2021/11/20 10:11:48;;;;;;;;;;;;;;;17.78;100.00;102395.28;5054165;28;19916;-55
2021/11/20 10:14:15;;;;;;;;;;;;;;;17.94;100.00;102385.91;5054228;28;19917;-54
2021/11/20 10:16:51;;;;;;;;;;;;;;;17.59;100.00;102395.03;5053810;28;20349;-51
2021/11/20 10:19:17;;;;;;;;;;;;;;;18.02;100.00;102380.31;5053810;28;19921;-54
2021/11/20 10:21:54;;;;;;;;;;;;;;;17.83;100.00;102375.69;5054233;28;19940;-52
2021/11/20 10:24:38;;;;;;;;;;;;;;;17.71;100.00;102372.75;5085333;28;19970;-56
2021/11/20 10:27:10;;;;;;;;;;;;;;;18.00;100.00;102370.72;5086632;28;20281;-54
2021/11/20 10:29:57;;;;;;;;;;;;;;;17.74;100.00;102367.78;5053774;28;19917;-56
2021/11/20 10:32:40;;;;;;;;;;;;;;;18.08;100.00;102373.25;5052328;28;19917;-55
2021/11/20 10:35:15;;;;;;;;;;;;;;;18.09;100.00;102371.34;5068940;28;19920;-52
2021/11/20 10:37:40;;;;;;;;;;;;;;;18.51;100.00;102371.13;5052060;28;19917;-54
2021/11/20 10:40:21;;;;;;;;;;;;;;;18.02;100.00;102374.09;5086496;28;19912;-55
2021/11/20 10:42:53;;;;;;;;;;;;;;;17.78;100.00;102369.03;5053639;28;20039;-55
2021/11/20 10:45:21;;;;;;;;;;;;;;;18.24;100.00;102368.47;5053579;28;20000;-53
2021/11/20 10:47:52;;;;;;;;;;;;;;;18.12;100.00;102370.97;5052324;28;20356;-57
2021/11/20 10:50:32;;;;;;;;;;;;;;;17.96;100.00;102355.91;5053470;28;19929;-57
2021/11/20 10:52:58;;;;;;;;;;;;;;;18.25;100.00;102356.59;5053278;28;19942;-58
2021/11/20 10:55:33;;;;;;;;;;;;;;;18.20;100.00;102354.50;5085067;28;20312;-53
2021/11/20 10:58:01;;;;;;;;;;;;;;;18.04;100.00;102363.88;5050883;28;20093;-53
2021/11/20 11:00:45;;;;;;;;;;;;;;;18.15;100.00;102347.00;5049656;28;19939;-55
2021/11/20 11:03:25;;;;;;;;;;;;;;;18.11;100.00;102343.03;5082651;28;20238;-56
2021/11/20 11:06:10;;;;;;;;;;;;;;;17.58;100.00;102331.16;5050857;28;19916;-56
2021/11/20 11:08:44;;;;;;;;;;;;;;;17.83;100.00;102333.25;5050987;28;19921;-51
2021/11/20 11:11:25;;;;;;;;;;;;;;;18.04;100.00;102328.69;5050629;28;19932;-51
2021/11/20 11:14:14;;;;;;;;;;;;;;;18.20;100.00;102325.53;5052557;28;20353;-57
2021/11/20 11:16:41;;;;;;;;;;;;;;;18.10;100.00;102316.16;5032467;28;19927;-53
2021/11/20 11:19:13;;;;;;;;;;;;;;;17.73;100.00;102314.72;5053172;28;20221;-57
2021/11/20 11:21:54;;;;;;;;;;;;;;;17.69;100.00;102305.34;5052512;28;20003;-53
2021/11/20 11:24:20;;;;;;;;;;;;;;;18.22;100.00;102302.81;5053041;28;20016;-56
2021/11/20 11:26:48;;;;;;;;;;;;;;;17.67;100.00;102295.75;5085398;28;20004;-57
2021/11/20 11:29:19;;;;;;;;;;;;;;;17.58;100.00;102295.13;5051595;28;19913;-55
2021/11/20 11:31:45;;;;;;;;;;;;;;;17.80;100.00;102279.53;5052445;28;19971;-55
2021/11/20 11:34:19;;;;;;;;;;;;;;;17.93;100.00;102278.69;5052456;28;19925;-55
2021/11/20 11:37:03;;;;;;;;;;;;;;;17.99;100.00;102271.59;5052529;28;19952;-56
2021/11/20 11:39:32;;;;;;;;;;;;;;;18.12;100.00;102276.22;5052486;28;19961;-57
2021/11/20 11:42:16;;;;;;;;;;;;;;;17.99;100.00;102266.19;5052499;28;19952;-54
2021/11/20 11:44:50;;;;;;;;;;;;;;;18.57;100.00;102268.16;5053044;28;19923;-53
2021/11/20 11:47:34;;;;;;;;;;;;;;;18.15;100.00;102251.41;5052804;28;19923;-56
2021/11/20 11:50:19;;;;;;;;;;;;;;;18.08;100.00;102254.13;5052431;28;19956;-55
2021/11/20 11:52:51;;;;;;;;;;;;;;;17.97;100.00;102255.59;5051217;28;19974;-54
2021/11/20 11:55:25;;;;;;;;;;;;;;;18.12;100.00;102251.84;5084764;28;19967;-54
2021/11/20 11:58:09;;;;;;;;;;;;;;;18.16;100.00;102253.91;5055672;28;20391;-57
2021/11/20 12:00:44;;;;;;;;;;;;;;;17.92;100.00;102249.97;5056677;28;20237;-55
2021/11/20 12:03:15;;;;;;;;;;;;;;;17.89;100.00;102239.56;5056102;28;19917;-52
2021/11/20 12:05:58;;;;;;;;;;;;;;;17.80;100.00;102238.97;5088385;28;19917;-50
2021/11/20 12:08:53;;;;;;;;;;;;;;;17.72;100.00;102228.34;5055072;28;20229;-52
2021/11/20 12:11:27;;;;;;;;;;;;;;;17.70;100.00;102220.44;5049724;28;19923;-54
2021/11/20 12:13:54;;;;;;;;;;;;;;;17.48;100.00;102203.59;5056024;28;19917;-57
2021/11/20 12:16:22;;;;;;;;;;;;;;;17.84;100.00;102207.72;5055658;28;19919;-52
2021/11/20 12:18:51;;;;;;;;;;;;;;;17.58;100.00;102198.59;5056207;28;19920;-52
2021/11/20 12:21:27;;;;;;;;;;;;;;;17.57;100.00;102191.53;5055998;28;19921;-52
2021/11/20 12:23:53;;;;;;;;;;;;;;;17.96;100.00;102194.38;5055891;28;20011;-56
2021/11/20 12:26:22;;;;;;;;;;;;;;;17.77;100.00;102182.56;5054867;28;19924;-57
2021/11/20 12:28:50;;;;;;;;;;;;;;;18.35;100.00;102189.06;5056009;28;19920;-59
2021/11/20 12:31:16;;;;;;;;;;;;;;;17.88;100.00;102183.78;5055657;28;19916;-56
2021/11/20 12:33:54;;;;;;;;;;;;;;;18.06;100.00;102177.72;5088353;28;19917;-57
2021/11/20 12:36:46;;;;;;;;;;;;;;;17.57;100.00;102172.59;5055514;28;19953;-55
2021/11/20 12:39:11;;;;;;;;;;;;;;;17.71;100.00;102178.81;5056451;28;19917;-57
2021/11/20 12:42:03;;;;;;;;;;;;;;;18.08;100.00;102163.97;5087550;28;20031;-53
2021/11/20 12:44:40;;;;;;;;;;;;;;;18.19;100.00;102174.13;5055472;28;20336;-52
2021/11/20 12:47:06;;;;;;;;;;;;;;;17.84;100.00;102159.03;5087350;28;20353;-53
2021/11/20 12:49:34;;;;;;;;;;;;;;;17.65;100.00;102154.47;5056047;28;19919;-54
2021/11/20 12:52:18;;;;;;;;;;;;;;;17.62;100.00;102153.84;5055234;28;19916;-59